ETH62L DXXX-DNMM
Flight info
| Callsign | ETH62L |
|---|---|
| Flight time | 0h 31m |
| Altitude | 15000 |
| Route | MONOS2S MONOS L433 TYE TYE1N |
| Aircraft | B38M/M-SDE1FGHILORVWXY/HB1 |
Departure
| Time | 2026-05-09 13:50 |
|---|---|
| Airport | Lomé–Tokoin International Airport (DXXX) |
Arrival
| Time | 2026-05-09 14:21 |
|---|---|
| Airport | Murtala Muhammed International Airport (DNMM) |
| Time | Latitude | Longitude | Altitude | Speed | Heading |
|---|---|---|---|---|---|
| 2026-05-09 13:24 | 6.16890 | 1.25324 | 77 ft | 0 kts | 302° |
| 2026-05-09 13:40 | 6.16890 | 1.25325 | 77 ft | 2 kts | 302° |
| 2026-05-09 13:40 | 6.16876 | 1.25346 | 71 ft | 4 kts | 307° |
| 2026-05-09 13:40 | 6.16858 | 1.25367 | 71 ft | 4 kts | 314° |
| 2026-05-09 13:41 | 6.16838 | 1.25384 | 71 ft | 4 kts | 330° |
| 2026-05-09 13:41 | 6.16815 | 1.25391 | 68 ft | 4 kts | 17° |
| 2026-05-09 13:41 | 6.16808 | 1.25388 | 70 ft | 2 kts | 39° |
| 2026-05-09 13:46 | 6.16816 | 1.25394 | 68 ft | 4 kts | 38° |
| 2026-05-09 13:46 | 6.16843 | 1.25416 | 73 ft | 6 kts | 38° |
| 2026-05-09 13:46 | 6.16883 | 1.25447 | 75 ft | 8 kts | 37° |
| 2026-05-09 13:46 | 6.16933 | 1.25487 | 75 ft | 10 kts | 42° |
| 2026-05-09 13:47 | 6.16991 | 1.25539 | 77 ft | 12 kts | 39° |
| 2026-05-09 13:47 | 6.17068 | 1.25601 | 76 ft | 18 kts | 38° |
| 2026-05-09 13:47 | 6.17188 | 1.25696 | 77 ft | 25 kts | 38° |
| 2026-05-09 13:47 | 6.17329 | 1.25813 | 66 ft | 27 kts | 39° |
| 2026-05-09 13:48 | 6.17475 | 1.25932 | 77 ft | 28 kts | 39° |
| 2026-05-09 13:48 | 6.17629 | 1.26054 | 74 ft | 25 kts | 37° |
| 2026-05-09 13:48 | 6.17709 | 1.26123 | 77 ft | 9 kts | 64° |
| 2026-05-09 13:48 | 6.17688 | 1.26178 | 75 ft | 10 kts | 126° |
| 2026-05-09 13:49 | 6.17643 | 1.26238 | 73 ft | 11 kts | 139° |
| 2026-05-09 13:49 | 6.17577 | 1.26214 | 77 ft | 12 kts | 218° |
| 2026-05-09 13:49 | 6.17500 | 1.26153 | 71 ft | 20 kts | 218° |
| 2026-05-09 13:49 | 6.17238 | 1.25945 | 72 ft | 85 kts | 218° |
| 2026-05-09 13:50 | 6.16591 | 1.25429 | 74 ft | 150 kts | 218° |
| 2026-05-09 13:50 | 6.15703 | 1.24707 | 480 ft | 171 kts | 220° |
| 2026-05-09 13:50 | 6.14743 | 1.24030 | 1383 ft | 167 kts | 204° |
| 2026-05-09 13:50 | 6.13562 | 1.23891 | 1902 ft | 187 kts | 162° |
| 2026-05-09 13:51 | 6.12558 | 1.24770 | 2479 ft | 202 kts | 122° |
| 2026-05-09 13:51 | 6.11929 | 1.26068 | 3171 ft | 211 kts | 118° |
| 2026-05-09 13:51 | 6.11171 | 1.27359 | 3847 ft | 217 kts | 125° |
| 2026-05-09 13:51 | 6.10394 | 1.28709 | 4514 ft | 228 kts | 110° |
| 2026-05-09 13:52 | 6.10340 | 1.30335 | 5145 ft | 245 kts | 71° |
| 2026-05-09 13:52 | 6.11364 | 1.31694 | 6002 ft | 250 kts | 41° |
| 2026-05-09 13:52 | 6.12773 | 1.32756 | 6814 ft | 254 kts | 38° |
| 2026-05-09 13:52 | 6.14207 | 1.33802 | 7648 ft | 257 kts | 39° |
| 2026-05-09 13:53 | 6.15644 | 1.34880 | 8489 ft | 261 kts | 41° |
| 2026-05-09 13:53 | 6.17097 | 1.36006 | 9255 ft | 267 kts | 42° |
| 2026-05-09 13:53 | 6.18588 | 1.37159 | 10041 ft | 271 kts | 43° |
| 2026-05-09 13:53 | 6.19876 | 1.38558 | 10529 ft | 281 kts | 63° |
| 2026-05-09 13:54 | 6.20500 | 1.40462 | 10864 ft | 297 kts | 81° |
| 2026-05-09 13:54 | 6.20862 | 1.42579 | 11136 ft | 317 kts | 80° |
| 2026-05-09 13:54 | 6.21242 | 1.44822 | 11473 ft | 333 kts | 81° |
| 2026-05-09 13:54 | 6.21627 | 1.47152 | 11959 ft | 341 kts | 81° |
| 2026-05-09 13:55 | 6.22009 | 1.49514 | 12647 ft | 345 kts | 81° |
| 2026-05-09 13:55 | 6.22394 | 1.51917 | 13235 ft | 351 kts | 81° |
| 2026-05-09 13:55 | 6.22782 | 1.54354 | 13854 ft | 356 kts | 81° |
| 2026-05-09 13:55 | 6.23175 | 1.56827 | 14411 ft | 360 kts | 81° |
| 2026-05-09 13:56 | 6.23573 | 1.59330 | 14759 ft | 365 kts | 81° |
| 2026-05-09 13:56 | 6.23974 | 1.61855 | 14870 ft | 371 kts | 81° |
| 2026-05-09 13:56 | 6.24389 | 1.64472 | 14869 ft | 387 kts | 81° |
| 2026-05-09 13:56 | 6.24820 | 1.67183 | 14868 ft | 397 kts | 81° |
| 2026-05-09 13:57 | 6.25257 | 1.69944 | 14877 ft | 402 kts | 81° |
| 2026-05-09 13:57 | 6.25698 | 1.72724 | 14899 ft | 404 kts | 81° |
| 2026-05-09 13:57 | 6.26135 | 1.75478 | 14907 ft | 404 kts | 81° |
| 2026-05-09 13:57 | 6.26577 | 1.78266 | 14914 ft | 404 kts | 81° |
| 2026-05-09 13:58 | 6.27019 | 1.81056 | 14908 ft | 404 kts | 81° |
| 2026-05-09 13:58 | 6.27466 | 1.83884 | 14906 ft | 404 kts | 81° |
| 2026-05-09 13:58 | 6.27902 | 1.86635 | 14912 ft | 404 kts | 81° |
| 2026-05-09 13:58 | 6.28343 | 1.89425 | 14907 ft | 404 kts | 81° |
| 2026-05-09 13:59 | 6.28784 | 1.92214 | 14911 ft | 404 kts | 81° |
| 2026-05-09 13:59 | 6.29225 | 1.94999 | 14908 ft | 404 kts | 81° |
| 2026-05-09 13:59 | 6.29666 | 1.97789 | 14911 ft | 404 kts | 81° |
| 2026-05-09 13:59 | 6.30106 | 2.00577 | 14911 ft | 404 kts | 81° |
| 2026-05-09 14:00 | 6.30546 | 2.03363 | 14903 ft | 404 kts | 81° |
| 2026-05-09 14:00 | 6.30694 | 2.04302 | 14911 ft | 404 kts | 81° |
| 2026-05-09 14:00 | 6.31426 | 2.08936 | 14902 ft | 404 kts | 81° |
| 2026-05-09 14:00 | 6.31866 | 2.11725 | 14911 ft | 403 kts | 81° |
| 2026-05-09 14:01 | 6.32305 | 2.14509 | 14907 ft | 404 kts | 81° |
| 2026-05-09 14:01 | 6.32744 | 2.17294 | 14905 ft | 403 kts | 81° |
| 2026-05-09 14:01 | 6.33183 | 2.20077 | 14903 ft | 404 kts | 81° |
| 2026-05-09 14:01 | 6.33622 | 2.22864 | 14908 ft | 403 kts | 81° |
| 2026-05-09 14:02 | 6.34060 | 2.25649 | 14908 ft | 403 kts | 81° |
| 2026-05-09 14:02 | 6.34499 | 2.28434 | 14914 ft | 403 kts | 81° |
| 2026-05-09 14:02 | 6.34938 | 2.31222 | 14908 ft | 404 kts | 81° |
| 2026-05-09 14:02 | 6.35376 | 2.34005 | 14921 ft | 404 kts | 81° |
| 2026-05-09 14:03 | 6.35823 | 2.36792 | 14909 ft | 404 kts | 79° |
| 2026-05-09 14:03 | 6.36760 | 2.39438 | 14904 ft | 405 kts | 62° |
| 2026-05-09 14:03 | 6.38383 | 2.41763 | 14916 ft | 407 kts | 53° |
| 2026-05-09 14:03 | 6.40154 | 2.43982 | 14915 ft | 407 kts | 52° |
| 2026-05-09 14:04 | 6.41949 | 2.46191 | 14910 ft | 407 kts | 52° |
| 2026-05-09 14:04 | 6.43754 | 2.48386 | 14912 ft | 408 kts | 52° |
| 2026-05-09 14:04 | 6.45565 | 2.50573 | 14810 ft | 403 kts | 52° |
| 2026-05-09 14:04 | 6.47336 | 2.52708 | 14502 ft | 393 kts | 52° |
| 2026-05-09 14:05 | 6.49084 | 2.54812 | 14000 ft | 390 kts | 52° |
| 2026-05-09 14:05 | 6.50820 | 2.56901 | 13425 ft | 389 kts | 52° |
| 2026-05-09 14:05 | 6.52550 | 2.58984 | 12802 ft | 387 kts | 52° |
| 2026-05-09 14:05 | 6.54273 | 2.61058 | 12216 ft | 385 kts | 52° |
| 2026-05-09 14:06 | 6.55978 | 2.63111 | 11811 ft | 378 kts | 52° |
| 2026-05-09 14:06 | 6.57637 | 2.65109 | 11638 ft | 365 kts | 52° |
| 2026-05-09 14:06 | 6.59238 | 2.67036 | 11459 ft | 354 kts | 52° |
| 2026-05-09 14:06 | 6.60772 | 2.68884 | 11281 ft | 343 kts | 52° |
| 2026-05-09 14:07 | 6.62280 | 2.70700 | 11107 ft | 333 kts | 52° |
| 2026-05-09 14:07 | 6.63761 | 2.72484 | 10944 ft | 323 kts | 52° |
| 2026-05-09 14:07 | 6.65160 | 2.74171 | 10787 ft | 314 kts | 52° |
| 2026-05-09 14:07 | 6.66539 | 2.75832 | 10642 ft | 304 kts | 52° |
| 2026-05-09 14:08 | 6.67875 | 2.77441 | 10493 ft | 295 kts | 52° |
| 2026-05-09 14:08 | 6.69171 | 2.79003 | 10353 ft | 286 kts | 53° |
| 2026-05-09 14:08 | 6.70355 | 2.80559 | 10204 ft | 275 kts | 64° |
| 2026-05-09 14:08 | 6.70978 | 2.82335 | 10074 ft | 265 kts | 73° |
| 2026-05-09 14:09 | 6.71528 | 2.84067 | 9942 ft | 256 kts | 72° |
| 2026-05-09 14:09 | 6.71890 | 2.85217 | 9775 ft | 254 kts | 73° |
| 2026-05-09 14:09 | 6.72583 | 2.87446 | 9408 ft | 250 kts | 73° |
| 2026-05-09 14:09 | 6.73093 | 2.89108 | 9142 ft | 247 kts | 73° |
| 2026-05-09 14:10 | 6.73925 | 2.91827 | 8725 ft | 242 kts | 73° |
| 2026-05-09 14:10 | 6.74421 | 2.93454 | 8481 ft | 247 kts | 73° |
| 2026-05-09 14:10 | 6.74930 | 2.95128 | 8216 ft | 253 kts | 73° |
| 2026-05-09 14:11 | 6.75448 | 2.96830 | 7958 ft | 255 kts | 73° |
| 2026-05-09 14:11 | 6.75969 | 2.98542 | 7701 ft | 256 kts | 73° |
| 2026-05-09 14:11 | 6.76491 | 3.00259 | 7446 ft | 258 kts | 73° |
| 2026-05-09 14:11 | 6.77017 | 3.01987 | 7178 ft | 259 kts | 73° |
| 2026-05-09 14:12 | 6.77543 | 3.03719 | 6906 ft | 260 kts | 74° |
| 2026-05-09 14:12 | 6.78073 | 3.05460 | 6650 ft | 260 kts | 73° |
| 2026-05-09 14:12 | 6.78252 | 3.06047 | 6552 ft | 261 kts | 74° |
| 2026-05-09 14:12 | 6.78642 | 3.07333 | 6362 ft | 262 kts | 74° |
| 2026-05-09 14:13 | 6.79175 | 3.09087 | 6069 ft | 261 kts | 74° |
| 2026-05-09 14:14 | 6.82267 | 3.20693 | 4769 ft | 226 kts | 90° |
| 2026-05-09 14:15 | 6.82296 | 3.22283 | 4494 ft | 229 kts | 90° |
| 2026-05-09 14:15 | 6.82324 | 3.23884 | 4241 ft | 229 kts | 90° |
| 2026-05-09 14:15 | 6.82351 | 3.25482 | 3988 ft | 228 kts | 90° |
| 2026-05-09 14:15 | 6.82376 | 3.27075 | 3735 ft | 227 kts | 90° |
| 2026-05-09 14:16 | 6.82352 | 3.28658 | 3513 ft | 224 kts | 102° |
| 2026-05-09 14:16 | 6.81672 | 3.30027 | 3458 ft | 221 kts | 136° |
| 2026-05-09 14:16 | 6.80363 | 3.30808 | 3479 ft | 221 kts | 163° |
| 2026-05-09 14:16 | 6.78843 | 3.31084 | 3501 ft | 223 kts | 176° |
| 2026-05-09 14:17 | 6.77313 | 3.31110 | 3479 ft | 215 kts | 180° |
| 2026-05-09 14:17 | 6.75838 | 3.31110 | 3305 ft | 210 kts | 180° |
| 2026-05-09 14:17 | 6.74375 | 3.31124 | 3034 ft | 211 kts | 180° |
| 2026-05-09 14:17 | 6.72928 | 3.31141 | 2820 ft | 205 kts | 180° |
| 2026-05-09 14:18 | 6.71509 | 3.31159 | 2539 ft | 202 kts | 180° |
| 2026-05-09 14:18 | 6.70115 | 3.31175 | 2271 ft | 198 kts | 180° |
| 2026-05-09 14:18 | 6.68754 | 3.31192 | 1994 ft | 192 kts | 180° |
| 2026-05-09 14:18 | 6.67461 | 3.31207 | 1773 ft | 181 kts | 180° |
| 2026-05-09 14:19 | 6.66245 | 3.31223 | 1542 ft | 168 kts | 180° |
| 2026-05-09 14:19 | 6.65106 | 3.31237 | 1330 ft | 159 kts | 181° |
| 2026-05-09 14:19 | 6.64026 | 3.31250 | 1125 ft | 152 kts | 180° |
| 2026-05-09 14:19 | 6.62980 | 3.31264 | 998 ft | 150 kts | 180° |
| 2026-05-09 14:20 | 6.61945 | 3.31275 | 749 ft | 147 kts | 181° |
| 2026-05-09 14:20 | 6.60934 | 3.31292 | 545 ft | 144 kts | 181° |
| 2026-05-09 14:20 | 6.59934 | 3.31309 | 327 ft | 149 kts | 179° |
| 2026-05-09 14:21 | 6.57916 | 3.31327 | 69 ft | 124 kts | 179° |
| 2026-05-09 14:21 | 6.57307 | 3.31331 | 72 ft | 60 kts | 179° |
| 2026-05-09 14:21 | 6.56892 | 3.31337 | 70 ft | 58 kts | 179° |
| 2026-05-09 14:21 | 6.56579 | 3.31369 | 67 ft | 39 kts | 162° |
| 2026-05-09 14:22 | 6.56414 | 3.31470 | 72 ft | 16 kts | 114° |
| 2026-05-09 14:22 | 6.56467 | 3.31543 | 73 ft | 15 kts | 7° |
| 2026-05-09 14:22 | 6.56580 | 3.31545 | 79 ft | 17 kts | 359° |
| 2026-05-09 14:22 | 6.56707 | 3.31543 | 79 ft | 19 kts | 358° |
| 2026-05-09 14:23 | 6.56846 | 3.31541 | 81 ft | 21 kts | 360° |
| 2026-05-09 14:23 | 6.56999 | 3.31540 | 79 ft | 23 kts | 358° |
| 2026-05-09 14:23 | 6.57168 | 3.31536 | 78 ft | 25 kts | 358° |
| 2026-05-09 14:23 | 6.57353 | 3.31534 | 77 ft | 28 kts | 359° |
| 2026-05-09 14:24 | 6.57553 | 3.31533 | 69 ft | 29 kts | 360° |
| 2026-05-09 14:24 | 6.57733 | 3.31529 | 77 ft | 26 kts | 359° |
| 2026-05-09 14:24 | 6.57919 | 3.31532 | 77 ft | 27 kts | 2° |
| 2026-05-09 14:24 | 6.58070 | 3.31612 | 78 ft | 27 kts | 69° |
| 2026-05-09 14:25 | 6.58140 | 3.31771 | 81 ft | 20 kts | 66° |
| 2026-05-09 14:25 | 6.58200 | 3.31903 | 80 ft | 22 kts | 68° |
| 2026-05-09 14:25 | 6.58189 | 3.32027 | 81 ft | 19 kts | 150° |
| 2026-05-09 14:25 | 6.58120 | 3.32058 | 82 ft | 0 kts | 156° |
| 2026-05-09 14:26 | 6.58099 | 3.32067 | 81 ft | 7 kts | 155° |
| 2026-05-09 14:26 | 6.58051 | 3.32090 | 82 ft | 7 kts | 157° |
| 2026-05-09 14:26 | 6.58023 | 3.32071 | 85 ft | 5 kts | 272° |
| 2026-05-09 14:26 | 6.58017 | 3.32034 | 83 ft | 2 kts | 249° |
| 2026-05-09 14:27 | 6.58014 | 3.32028 | 83 ft | 0 kts | 248° |
| 2026-05-09 14:27 | 6.58012 | 3.32022 | 81 ft | 0 kts | 248° |
| 2026-05-09 14:27 | 6.58011 | 3.32021 | 81 ft | 0 kts | 248° |